createdAt,value
2019-03-19T00:00:25.431Z,0.00
2019-03-19T00:01:25.529Z,0.00
2019-03-19T00:02:25.401Z,0.00
2019-03-19T00:03:25.386Z,0.00
2019-03-19T00:04:25.367Z,0.00
2019-03-19T00:05:25.353Z,0.00
2019-03-19T00:06:25.349Z,0.00
2019-03-19T00:07:25.437Z,0.00
2019-03-19T00:08:25.339Z,0.00
2019-03-19T00:09:25.317Z,0.00
2019-03-19T00:10:25.318Z,0.00
2019-03-19T00:11:25.321Z,0.00
2019-03-19T00:12:25.394Z,0.00
2019-03-19T00:13:25.363Z,0.00
2019-03-19T00:14:26.704Z,0.00
2019-03-19T00:15:25.305Z,0.00
2019-03-19T00:16:25.256Z,0.00
2019-03-19T00:17:25.231Z,0.00
2019-03-19T00:18:25.209Z,0.00
2019-03-19T00:19:30.267Z,0.00
2019-03-19T00:20:25.250Z,0.00
2019-03-19T00:21:25.188Z,0.00
2019-03-19T00:22:25.881Z,0.00
2019-03-19T00:23:25.169Z,0.00
2019-03-19T00:24:25.368Z,0.00
2019-03-19T00:25:29.953Z,0.00
2019-03-19T00:26:26.122Z,0.00
2019-03-19T00:27:25.118Z,0.00
2019-03-19T00:28:25.162Z,0.00
2019-03-19T00:29:25.086Z,0.00
2019-03-19T00:30:25.366Z,0.00
2019-03-19T00:31:25.167Z,0.00
2019-03-19T00:32:25.364Z,0.00
2019-03-19T00:33:25.046Z,0.00
2019-03-19T00:34:25.250Z,0.00
2019-03-19T00:35:25.025Z,0.00
2019-03-19T00:36:25.025Z,0.00
2019-03-19T00:37:25.029Z,0.00
2019-03-19T00:38:25.105Z,0.00
2019-03-19T00:39:24.975Z,0.00
2019-03-19T00:40:24.964Z,0.00
2019-03-19T00:41:24.955Z,0.00
2019-03-19T00:42:25.062Z,0.00
2019-03-19T00:43:25.067Z,0.00
2019-03-19T00:44:25.061Z,0.00
2019-03-19T00:45:24.985Z,0.00
2019-03-19T00:46:24.905Z,0.00
2019-03-19T00:47:24.915Z,0.00
2019-03-19T00:48:24.893Z,0.00
2019-03-19T00:49:24.867Z,0.00
2019-03-19T00:50:25.592Z,0.00
2019-03-19T00:51:24.850Z,0.00
2019-03-19T00:52:24.861Z,0.00
2019-03-19T00:53:24.825Z,0.00
2019-03-19T00:54:24.820Z,0.00
2019-03-19T00:55:24.929Z,0.00
2019-03-19T00:56:24.796Z,0.00
2019-03-19T00:57:24.784Z,0.00
2019-03-19T00:58:24.769Z,0.00
2019-03-19T00:59:24.765Z,0.00
2019-03-19T01:00:24.767Z,0.00
2019-03-19T01:01:24.857Z,0.00
2019-03-19T01:02:24.809Z,0.00
2019-03-19T01:03:24.799Z,0.00
2019-03-19T01:04:24.720Z,0.00
2019-03-19T01:05:24.694Z,0.00
2019-03-19T01:06:25.008Z,0.00
2019-03-19T01:07:24.679Z,0.00
2019-03-19T01:08:24.651Z,0.00
2019-03-19T01:09:24.892Z,0.00
2019-03-19T01:10:24.660Z,0.00
2019-03-19T01:11:24.652Z,0.00
2019-03-19T01:12:24.661Z,0.00
2019-03-19T01:13:24.611Z,0.00
2019-03-19T01:14:24.784Z,0.00
2019-03-19T01:15:24.591Z,0.00
2019-03-19T01:16:24.778Z,0.00
2019-03-19T01:17:24.676Z,0.00
2019-03-19T01:18:24.557Z,0.00
2019-03-19T01:19:24.685Z,0.00
2019-03-19T01:20:24.587Z,0.00
2019-03-19T01:21:24.881Z,0.00
2019-03-19T01:22:24.526Z,0.00
2019-03-19T01:23:24.538Z,0.00
2019-03-19T01:24:24.541Z,0.00
2019-03-19T01:25:25.102Z,0.00
2019-03-19T01:26:24.816Z,0.00
2019-03-19T01:27:24.507Z,0.00
2019-03-19T01:28:24.511Z,0.00
2019-03-19T01:29:24.421Z,0.00
2019-03-19T01:30:24.408Z,0.00
2019-03-19T01:31:24.396Z,0.00
2019-03-19T01:32:24.586Z,0.00
2019-03-19T01:33:24.401Z,0.00
2019-03-19T01:34:24.635Z,0.00
2019-03-19T01:35:24.378Z,0.00
2019-03-19T01:36:24.355Z,0.00
2019-03-19T01:37:24.349Z,0.00
2019-03-19T01:38:24.326Z,0.00
2019-03-19T01:39:24.323Z,0.00
2019-03-19T01:40:24.622Z,0.00
2019-03-19T01:41:24.287Z,0.00
2019-03-19T01:42:24.278Z,0.00
2019-03-19T01:43:24.272Z,0.00
2019-03-19T01:44:24.262Z,0.00
2019-03-19T01:45:24.273Z,0.00
2019-03-19T01:46:24.379Z,0.00
2019-03-19T01:47:24.813Z,0.00
2019-03-19T01:48:24.217Z,0.00
2019-03-19T01:49:24.200Z,0.00
2019-03-19T01:50:24.201Z,0.00
2019-03-19T01:51:24.239Z,0.00
2019-03-19T01:52:24.493Z,0.00
2019-03-19T01:53:24.161Z,0.00
2019-03-19T01:54:24.148Z,0.00
2019-03-19T01:55:25.642Z,0.00
2019-03-19T01:56:24.147Z,0.00
2019-03-19T01:57:24.343Z,0.00
2019-03-19T01:58:24.098Z,0.00
2019-03-19T01:59:24.097Z,0.00
2019-03-19T02:00:24.078Z,0.00
2019-03-19T02:01:24.077Z,0.00
2019-03-19T02:02:24.057Z,0.00
2019-03-19T02:03:24.199Z,0.00
2019-03-19T02:04:24.035Z,0.00
2019-03-19T02:05:24.020Z,0.00
2019-03-19T02:06:24.024Z,0.00
2019-03-19T02:07:24.004Z,0.00
2019-03-19T02:08:24.070Z,0.00
2019-03-19T02:09:24.397Z,0.00
2019-03-19T02:10:24.277Z,0.00
2019-03-19T02:11:24.131Z,0.00
2019-03-19T02:12:23.962Z,0.00
2019-03-19T02:13:23.934Z,0.00
2019-03-19T02:14:24.040Z,0.00
2019-03-19T02:15:23.915Z,0.00
2019-03-19T02:16:23.909Z,0.00
2019-03-19T02:17:23.891Z,0.00
2019-03-19T02:18:23.888Z,0.00
2019-03-19T02:19:24.005Z,0.00
2019-03-19T02:20:23.988Z,0.00
2019-03-19T02:21:23.875Z,0.00
2019-03-19T02:22:23.850Z,0.00
2019-03-19T02:23:23.868Z,0.00
2019-03-19T02:24:23.836Z,0.00
2019-03-19T02:25:24.838Z,0.00
2019-03-19T02:26:23.790Z,0.00
2019-03-19T02:27:23.801Z,0.00
2019-03-19T02:28:23.771Z,0.00
2019-03-19T02:29:23.765Z,0.00
2019-03-19T02:30:23.835Z,0.00
2019-03-19T02:31:23.860Z,0.00
2019-03-19T02:32:23.726Z,0.00
2019-03-19T02:33:23.717Z,0.00
2019-03-19T02:34:26.633Z,0.00
2019-03-19T02:35:23.717Z,0.00
2019-03-19T02:36:24.850Z,0.00
2019-03-19T02:37:23.681Z,0.00
2019-03-19T02:38:23.659Z,0.00
2019-03-19T02:39:23.650Z,0.00
2019-03-19T02:40:23.687Z,0.00
2019-03-19T02:41:23.854Z,0.00
2019-03-19T02:42:23.628Z,0.00
2019-03-19T02:43:23.605Z,0.00
2019-03-19T02:44:23.594Z,0.00
2019-03-19T02:45:23.629Z,0.00
2019-03-19T02:46:23.581Z,0.00
2019-03-19T02:47:23.674Z,0.00
2019-03-19T02:48:23.560Z,0.00
2019-03-19T02:49:23.542Z,0.00
2019-03-19T02:50:23.535Z,0.00
2019-03-19T02:51:23.520Z,0.00
2019-03-19T02:52:23.773Z,0.00
2019-03-19T02:53:23.627Z,0.00
2019-03-19T02:54:23.620Z,0.00
2019-03-19T02:55:23.554Z,0.00
2019-03-19T02:56:32.702Z,0.00
2019-03-19T02:57:24.540Z,0.00
2019-03-19T02:58:23.442Z,0.00
2019-03-19T02:59:23.625Z,0.00
2019-03-19T03:00:23.418Z,0.00
2019-03-19T03:01:23.402Z,0.00
2019-03-19T03:02:23.403Z,0.00
2019-03-19T03:03:23.406Z,0.00
2019-03-19T03:04:23.385Z,0.00
2019-03-19T03:05:23.491Z,0.00
2019-03-19T03:06:23.366Z,0.00
2019-03-19T03:07:30.301Z,0.00
2019-03-19T03:08:23.412Z,0.00
2019-03-19T03:09:23.320Z,0.00
2019-03-19T03:10:23.307Z,0.00
2019-03-19T03:11:23.363Z,0.00
2019-03-19T03:12:23.293Z,0.00
2019-03-19T03:13:23.279Z,0.00
2019-03-19T03:14:23.352Z,0.00
2019-03-19T03:15:23.256Z,0.00
2019-03-19T03:16:23.267Z,0.00
2019-03-19T03:17:23.360Z,0.00
2019-03-19T03:18:23.233Z,0.00
2019-03-19T03:19:23.213Z,0.00
2019-03-19T03:20:23.207Z,0.00
2019-03-19T03:21:23.408Z,0.00
2019-03-19T03:22:23.174Z,0.00
2019-03-19T03:23:23.397Z,0.00
2019-03-19T03:24:23.164Z,0.00
2019-03-19T03:25:23.156Z,0.00
2019-03-19T03:26:23.131Z,0.00
2019-03-19T03:27:23.122Z,0.00
2019-03-19T03:28:23.353Z,0.00
2019-03-19T03:29:23.114Z,0.00
2019-03-19T03:30:23.138Z,0.00
2019-03-19T03:31:23.289Z,0.00
2019-03-19T03:32:23.076Z,0.00
2019-03-19T03:33:23.406Z,0.00
2019-03-19T03:34:23.073Z,0.00
2019-03-19T03:35:23.052Z,0.00
2019-03-19T03:36:23.082Z,0.00
2019-03-19T03:37:23.021Z,0.00
2019-03-19T03:38:23.125Z,0.00
2019-03-19T03:39:22.995Z,0.00
2019-03-19T03:40:22.983Z,0.00
2019-03-19T03:41:22.975Z,0.00
2019-03-19T03:42:22.964Z,0.00
2019-03-19T03:43:22.972Z,0.00
2019-03-19T03:44:23.105Z,0.00
2019-03-19T03:45:22.922Z,0.00
2019-03-19T03:46:23.069Z,0.00
2019-03-19T03:47:24.112Z,0.00
2019-03-19T03:48:22.906Z,0.00
2019-03-19T03:49:22.896Z,0.00
2019-03-19T03:50:22.905Z,0.00
2019-03-19T03:51:22.862Z,0.00
2019-03-19T03:52:23.026Z,0.00
2019-03-19T03:53:22.873Z,0.00
2019-03-19T03:54:22.834Z,0.00
2019-03-19T03:55:22.910Z,0.00
2019-03-19T03:56:22.828Z,0.00
2019-03-19T03:57:22.798Z,0.00
2019-03-19T03:58:22.943Z,0.00
2019-03-19T03:59:22.801Z,0.00
2019-03-19T04:00:22.775Z,0.00
2019-03-19T04:01:22.822Z,0.00
2019-03-19T04:02:22.773Z,0.00
2019-03-19T04:03:22.869Z,0.00
2019-03-19T04:04:22.846Z,0.00
2019-03-19T04:05:22.728Z,0.00
2019-03-19T04:06:22.735Z,0.00
2019-03-19T04:07:22.688Z,0.00
2019-03-19T04:08:22.832Z,0.00
2019-03-19T04:09:23.041Z,0.00
2019-03-19T04:10:22.672Z,0.00
2019-03-19T04:11:22.652Z,0.00
2019-03-19T04:12:22.645Z,0.00
2019-03-19T04:13:22.629Z,0.00
2019-03-19T04:14:22.616Z,0.00
2019-03-19T04:15:22.839Z,0.00
2019-03-19T04:16:22.616Z,0.00
2019-03-19T04:17:22.873Z,0.00
2019-03-19T04:18:22.738Z,0.00
2019-03-19T04:19:22.569Z,0.00
2019-03-19T04:20:22.683Z,0.00
2019-03-19T04:21:22.554Z,0.00
2019-03-19T04:22:22.561Z,0.00
2019-03-19T04:23:22.669Z,0.00
2019-03-19T04:24:22.566Z,0.00
2019-03-19T04:25:22.546Z,0.00
2019-03-19T04:26:22.571Z,0.00
2019-03-19T04:27:22.572Z,0.00
2019-03-19T04:28:22.535Z,0.00
2019-03-19T04:29:22.811Z,0.00
2019-03-19T04:30:22.502Z,0.00
2019-03-19T04:31:22.432Z,0.00
2019-03-19T04:32:22.690Z,0.00
2019-03-19T04:33:22.429Z,0.00
2019-03-19T04:34:22.408Z,0.00
2019-03-19T04:35:22.385Z,0.00
2019-03-19T04:36:22.503Z,0.00
2019-03-19T04:37:24.441Z,0.00
2019-03-19T04:38:22.381Z,0.00
2019-03-19T04:39:22.385Z,0.00
2019-03-19T04:40:22.546Z,0.00
2019-03-19T04:41:22.327Z,0.00
2019-03-19T04:42:22.322Z,0.00
2019-03-19T04:43:22.301Z,0.00
2019-03-19T04:44:22.295Z,0.00
2019-03-19T04:45:22.280Z,0.00
2019-03-19T04:46:22.410Z,0.00
2019-03-19T04:47:22.255Z,0.00
2019-03-19T04:48:22.243Z,0.00
2019-03-19T04:49:22.246Z,0.00
2019-03-19T04:50:22.231Z,0.00
2019-03-19T04:51:22.223Z,0.00
2019-03-19T04:52:22.291Z,0.00
2019-03-19T04:53:24.113Z,0.00
2019-03-19T04:54:22.278Z,0.00
2019-03-19T04:55:22.188Z,0.00
2019-03-19T04:56:22.230Z,0.00
2019-03-19T04:57:26.726Z,0.00
2019-03-19T04:58:23.675Z,0.00
2019-03-19T04:59:22.124Z,0.00
2019-03-19T05:00:22.140Z,0.00
2019-03-19T05:01:22.110Z,0.00
2019-03-19T05:02:22.115Z,0.00
2019-03-19T05:03:22.086Z,0.00
2019-03-19T05:04:22.294Z,0.00
2019-03-19T05:05:22.070Z,0.00
2019-03-19T05:06:22.053Z,0.00
2019-03-19T05:07:22.052Z,0.00
2019-03-19T05:08:22.039Z,0.00
2019-03-19T05:09:22.191Z,0.00
2019-03-19T05:10:22.017Z,0.00
2019-03-19T05:11:21.994Z,0.00
2019-03-19T05:12:21.988Z,0.00
2019-03-19T05:13:21.995Z,5.62
2019-03-19T05:14:22.119Z,5.62
2019-03-19T05:15:21.972Z,5.62
2019-03-19T05:16:22.081Z,5.62
2019-03-19T05:17:21.933Z,5.62
2019-03-19T05:18:21.922Z,5.62
2019-03-19T05:19:21.919Z,5.62
2019-03-19T05:20:22.028Z,5.62
2019-03-19T05:21:21.979Z,5.62
2019-03-19T05:22:21.873Z,5.62
2019-03-19T05:23:21.861Z,11.25
2019-03-19T05:24:21.851Z,11.25
2019-03-19T05:25:21.893Z,11.25
2019-03-19T05:26:22.093Z,11.25
2019-03-19T05:27:21.820Z,11.25
2019-03-19T05:28:21.838Z,11.25
2019-03-19T05:29:21.803Z,11.25
2019-03-19T05:30:21.794Z,11.25
2019-03-19T05:31:21.939Z,16.88
2019-03-19T05:32:21.761Z,16.88
2019-03-19T05:33:21.765Z,16.88
2019-03-19T05:34:21.911Z,16.88
2019-03-19T05:35:21.888Z,16.88
2019-03-19T05:36:21.937Z,16.88
2019-03-19T05:37:21.763Z,22.50
2019-03-19T05:38:21.735Z,22.50
2019-03-19T05:39:22.021Z,22.50
2019-03-19T05:40:21.693Z,28.12
2019-03-19T05:41:21.725Z,28.12
2019-03-19T05:42:21.666Z,28.12
2019-03-19T05:43:21.760Z,28.12
2019-03-19T05:44:21.835Z,28.12
2019-03-19T05:45:21.643Z,33.75
2019-03-19T05:46:22.660Z,33.75
2019-03-19T05:47:21.606Z,33.75
2019-03-19T05:48:23.210Z,33.75
2019-03-19T05:49:21.615Z,39.38
2019-03-19T05:50:21.659Z,45.00
2019-03-19T05:51:21.597Z,45.00
2019-03-19T05:52:22.032Z,45.00
2019-03-19T05:53:21.599Z,39.38
2019-03-19T05:54:21.782Z,39.38
2019-03-19T05:55:21.676Z,39.38
2019-03-19T05:56:21.785Z,45.00
2019-03-19T05:57:21.881Z,45.00
2019-03-19T05:58:21.782Z,45.00
2019-03-19T05:59:21.870Z,45.00
2019-03-19T06:00:21.941Z,50.62
2019-03-19T06:01:21.592Z,56.25
2019-03-19T06:02:21.729Z,61.88
2019-03-19T06:03:21.922Z,73.12
2019-03-19T06:04:21.752Z,78.75
2019-03-19T06:05:21.745Z,90.00
2019-03-19T06:06:21.637Z,95.62
2019-03-19T06:07:21.751Z,101.25
2019-03-19T06:08:36.231Z,112.50
2019-03-19T06:09:28.022Z,123.75
2019-03-19T06:10:21.629Z,140.62
2019-03-19T06:11:23.847Z,151.88
2019-03-19T06:12:21.701Z,157.50
2019-03-19T06:13:21.924Z,168.75
2019-03-19T06:14:21.955Z,180.00
2019-03-19T06:15:21.740Z,191.25
2019-03-19T06:16:21.674Z,191.25
2019-03-19T06:17:21.876Z,208.12
2019-03-19T06:18:21.629Z,219.38
2019-03-19T06:19:22.978Z,219.38
2019-03-19T06:20:21.873Z,225.00
2019-03-19T06:21:22.132Z,230.62
2019-03-19T06:22:21.806Z,241.88
2019-03-19T06:23:21.899Z,270.00
2019-03-19T06:24:27.026Z,360.00
2019-03-19T06:25:22.676Z,354.38
2019-03-19T06:26:22.863Z,360.00
2019-03-19T06:27:22.241Z,405.00
2019-03-19T06:28:21.635Z,303.75
2019-03-19T06:29:21.653Z,253.12
2019-03-19T06:30:22.549Z,388.12
2019-03-19T06:31:22.783Z,331.88
2019-03-19T06:32:21.791Z,309.38
2019-03-19T06:33:21.699Z,281.25
2019-03-19T06:34:21.647Z,444.38
2019-03-19T06:35:21.664Z,281.25
2019-03-19T06:36:21.894Z,326.25
2019-03-19T06:37:22.245Z,624.38
2019-03-19T06:38:21.739Z,348.75
2019-03-19T06:39:21.699Z,371.25
2019-03-19T06:40:21.730Z,528.75
2019-03-19T06:41:21.674Z,708.75
2019-03-19T06:42:22.285Z,511.88
2019-03-19T06:43:21.661Z,472.50
2019-03-19T06:44:22.375Z,450.00
2019-03-19T06:45:23.141Z,309.38
2019-03-19T06:46:22.196Z,331.88
2019-03-19T06:47:22.357Z,360.00
2019-03-19T06:48:20.934Z,438.75
2019-03-19T06:49:21.339Z,630.00
2019-03-19T06:50:22.018Z,545.62
2019-03-19T06:51:20.904Z,776.25
2019-03-19T06:52:22.133Z,528.75
2019-03-19T06:53:20.868Z,658.12
2019-03-19T06:54:21.780Z,748.12
2019-03-19T06:55:20.860Z,984.38
2019-03-19T06:56:20.853Z,663.75
2019-03-19T06:57:20.851Z,483.75
2019-03-19T06:58:21.654Z,444.38
2019-03-19T06:59:20.821Z,410.62
2019-03-19T07:00:21.694Z,393.75
2019-03-19T07:01:20.791Z,382.50
2019-03-19T07:02:20.837Z,410.62
2019-03-19T07:03:21.349Z,517.50
2019-03-19T07:04:21.035Z,635.62
2019-03-19T07:05:20.926Z,478.12
2019-03-19T07:06:21.938Z,646.88
2019-03-19T07:07:20.715Z,421.88
2019-03-19T07:08:20.741Z,624.38
2019-03-19T07:09:22.358Z,1344.38
2019-03-19T07:10:20.682Z,1473.75
2019-03-19T07:11:20.863Z,736.88
2019-03-19T07:12:20.666Z,1001.25
2019-03-19T07:13:20.664Z,534.38
2019-03-19T07:14:20.645Z,663.75
2019-03-19T07:15:20.623Z,376.88
2019-03-19T07:16:20.803Z,483.75
2019-03-19T07:17:20.883Z,517.50
2019-03-19T07:18:20.617Z,483.75
2019-03-19T07:19:20.597Z,393.75
2019-03-19T07:20:22.069Z,483.75
2019-03-19T07:21:20.747Z,528.75
2019-03-19T07:22:20.627Z,916.88
2019-03-19T07:23:21.240Z,461.25
2019-03-19T07:24:20.587Z,483.75
2019-03-19T07:25:20.805Z,1558.12
2019-03-19T07:26:20.609Z,675.00
2019-03-19T07:27:20.633Z,1614.38
2019-03-19T07:28:22.301Z,489.38
2019-03-19T07:29:21.619Z,618.75
2019-03-19T07:30:20.454Z,1738.12
2019-03-19T07:31:30.426Z,697.50
2019-03-19T07:32:21.601Z,585.00
2019-03-19T07:33:20.427Z,641.25
2019-03-19T07:34:20.721Z,1698.75
2019-03-19T07:35:20.411Z,1828.12
2019-03-19T07:36:20.408Z,1271.25
2019-03-19T07:37:20.399Z,1091.25
2019-03-19T07:38:20.441Z,1783.12
2019-03-19T07:39:20.353Z,1923.75
2019-03-19T07:40:20.627Z,1428.75
2019-03-19T07:41:20.465Z,1991.25
2019-03-19T07:42:20.369Z,686.25
2019-03-19T07:43:20.327Z,1485.00
2019-03-19T07:44:20.313Z,562.50
2019-03-19T07:45:20.294Z,601.88
2019-03-19T07:46:20.336Z,1766.25
2019-03-19T07:47:25.905Z,793.12
2019-03-19T07:48:20.285Z,511.88
2019-03-19T07:49:20.278Z,1170.00
2019-03-19T07:50:20.234Z,669.38
2019-03-19T07:51:20.299Z,2109.38
2019-03-19T07:52:20.646Z,2075.62
2019-03-19T07:53:20.204Z,2120.62
2019-03-19T07:54:20.206Z,1558.12
2019-03-19T07:55:20.269Z,703.12
2019-03-19T07:56:20.418Z,2238.75
2019-03-19T07:57:20.769Z,2025.00
2019-03-19T07:58:31.375Z,961.88
2019-03-19T07:59:21.683Z,1153.12
2019-03-19T08:00:20.193Z,810.00
2019-03-19T08:01:20.116Z,770.62
2019-03-19T08:02:20.167Z,686.25
2019-03-19T08:03:20.394Z,675.00
2019-03-19T08:04:20.085Z,1029.38
2019-03-19T08:05:20.082Z,658.12
2019-03-19T08:06:20.061Z,663.75
2019-03-19T08:07:20.047Z,1198.12
2019-03-19T08:08:20.225Z,607.50
2019-03-19T08:09:20.105Z,562.50
2019-03-19T08:10:20.060Z,534.38
2019-03-19T08:11:20.005Z,601.88
2019-03-19T08:12:20.126Z,725.62
2019-03-19T08:13:20.203Z,787.50
2019-03-19T08:14:20.193Z,1310.62
2019-03-19T08:15:19.967Z,888.75
2019-03-19T08:16:27.420Z,1080.00
2019-03-19T08:17:21.008Z,866.25
2019-03-19T08:18:19.927Z,635.62
2019-03-19T08:19:20.095Z,607.50
2019-03-19T08:20:19.912Z,826.88
2019-03-19T08:21:20.042Z,787.50
2019-03-19T08:22:19.931Z,2396.25
2019-03-19T08:23:19.873Z,731.25
2019-03-19T08:24:19.866Z,641.25
2019-03-19T08:25:19.881Z,2424.38
2019-03-19T08:26:19.988Z,2210.62
2019-03-19T08:27:19.999Z,2435.62
2019-03-19T08:28:19.834Z,2396.25
2019-03-19T08:29:19.804Z,545.62
2019-03-19T08:30:19.819Z,495.00
2019-03-19T08:31:22.460Z,2520.00
2019-03-19T08:32:19.781Z,2581.88
2019-03-19T08:33:19.773Z,2598.75
2019-03-19T08:34:19.769Z,2688.75
2019-03-19T08:35:20.224Z,2666.25
2019-03-19T08:36:19.722Z,1018.12
2019-03-19T08:37:19.723Z,2913.75
2019-03-19T08:38:19.707Z,2812.50
2019-03-19T08:39:20.762Z,1839.38
2019-03-19T08:40:19.723Z,781.88
2019-03-19T08:41:19.846Z,2941.88
2019-03-19T08:42:19.700Z,2902.50
2019-03-19T08:43:20.439Z,2908.12
2019-03-19T08:44:27.426Z,928.12
2019-03-19T08:45:20.664Z,815.62
2019-03-19T08:46:19.938Z,900.00
2019-03-19T08:47:19.602Z,680.62
2019-03-19T08:48:19.608Z,540.00
2019-03-19T08:49:19.691Z,646.88
2019-03-19T08:50:19.574Z,691.88
2019-03-19T08:51:19.571Z,2902.50
2019-03-19T08:52:19.558Z,2885.62
2019-03-19T08:53:19.537Z,1591.88
2019-03-19T08:54:19.527Z,3043.12
2019-03-19T08:55:19.638Z,2919.38
2019-03-19T08:56:19.517Z,798.75
2019-03-19T08:57:19.497Z,691.88
2019-03-19T08:58:19.509Z,1080.00
2019-03-19T08:59:19.605Z,2953.12
2019-03-19T09:00:19.467Z,3009.38
2019-03-19T09:01:19.574Z,973.12
2019-03-19T09:02:19.436Z,1063.12
2019-03-19T09:03:19.434Z,798.75
2019-03-19T09:04:19.409Z,630.00
2019-03-19T09:05:19.510Z,590.62
2019-03-19T09:06:19.409Z,613.12
2019-03-19T09:07:20.189Z,652.50
2019-03-19T09:08:19.363Z,871.88
2019-03-19T09:09:40.371Z,939.38
2019-03-19T09:10:19.546Z,3110.62
2019-03-19T09:11:19.367Z,1496.25
2019-03-19T09:12:19.339Z,3121.88
2019-03-19T09:13:19.555Z,978.75
2019-03-19T09:14:19.302Z,2435.62
2019-03-19T09:15:19.332Z,3110.62
2019-03-19T09:16:19.305Z,2587.50
2019-03-19T09:17:19.277Z,3436.88
2019-03-19T09:18:19.464Z,3211.88
2019-03-19T09:19:19.249Z,3071.25
2019-03-19T09:20:19.255Z,3105.00
2019-03-19T09:21:19.234Z,2992.50
2019-03-19T09:22:19.960Z,3206.25
2019-03-19T09:23:19.205Z,3425.62
2019-03-19T09:24:19.633Z,3301.88
2019-03-19T09:25:19.176Z,1636.88
2019-03-19T09:26:19.164Z,1001.25
2019-03-19T09:27:19.190Z,781.88
2019-03-19T09:28:19.192Z,1023.75
2019-03-19T09:29:19.363Z,3335.62
2019-03-19T09:30:20.105Z,2908.12
2019-03-19T09:31:19.116Z,2531.25
2019-03-19T09:32:19.108Z,900.00
2019-03-19T09:33:19.742Z,798.75
2019-03-19T09:34:19.081Z,725.62
2019-03-19T09:35:19.099Z,725.62
2019-03-19T09:36:19.252Z,871.88
2019-03-19T09:37:19.102Z,961.88
2019-03-19T09:38:19.044Z,3431.25
2019-03-19T09:39:19.025Z,911.25
2019-03-19T09:40:19.019Z,1327.50
2019-03-19T09:41:19.094Z,1383.75
2019-03-19T09:42:20.365Z,736.88
2019-03-19T09:43:18.979Z,720.00
2019-03-19T09:44:19.108Z,804.38
2019-03-19T09:45:19.025Z,1023.75
2019-03-19T09:46:18.949Z,1946.25
2019-03-19T09:47:18.950Z,703.12
2019-03-19T09:48:18.930Z,613.12
2019-03-19T09:49:21.089Z,590.62
2019-03-19T09:50:19.240Z,601.88
2019-03-19T09:51:18.906Z,568.12
2019-03-19T09:52:18.885Z,540.00
2019-03-19T09:53:18.971Z,511.88
2019-03-19T09:54:18.858Z,478.12
2019-03-19T09:55:19.040Z,495.00
2019-03-19T09:56:18.849Z,540.00
2019-03-19T09:57:18.821Z,579.38
2019-03-19T09:58:18.939Z,601.88
2019-03-19T09:59:26.826Z,568.12
2019-03-19T10:00:19.798Z,506.25
2019-03-19T10:01:18.778Z,568.12
2019-03-19T10:02:18.769Z,601.88
2019-03-19T10:03:19.014Z,849.38
2019-03-19T10:04:18.932Z,3735.00
2019-03-19T10:05:18.805Z,3903.75
2019-03-19T10:06:18.724Z,3661.88
2019-03-19T10:07:18.847Z,3639.38
2019-03-19T10:08:18.705Z,1890.00
2019-03-19T10:09:19.098Z,3706.88
2019-03-19T10:10:18.681Z,3746.25
2019-03-19T10:11:18.666Z,2632.50
2019-03-19T10:12:18.665Z,3577.50
2019-03-19T10:13:18.661Z,3656.25
2019-03-19T10:14:19.042Z,1265.62
2019-03-19T10:15:18.637Z,3729.38
2019-03-19T10:16:18.963Z,3296.25
2019-03-19T10:17:18.613Z,990.00
2019-03-19T10:18:18.604Z,1068.75
2019-03-19T10:19:18.925Z,815.62
2019-03-19T10:20:18.568Z,736.88
2019-03-19T10:21:18.573Z,680.62
2019-03-19T10:22:18.734Z,658.12
2019-03-19T10:23:18.554Z,596.25
2019-03-19T10:24:18.691Z,511.88
2019-03-19T10:25:19.084Z,472.50
2019-03-19T10:26:18.749Z,461.25
2019-03-19T10:27:19.659Z,461.25
2019-03-19T10:28:18.549Z,472.50
2019-03-19T10:29:18.544Z,528.75
2019-03-19T10:30:18.456Z,540.00
2019-03-19T10:31:18.754Z,590.62
2019-03-19T10:32:18.715Z,635.62
2019-03-19T10:33:18.419Z,810.00
2019-03-19T10:34:18.413Z,3397.50
2019-03-19T10:35:18.411Z,3431.25
2019-03-19T10:36:18.411Z,3301.88
2019-03-19T10:37:18.373Z,3504.38
2019-03-19T10:38:18.598Z,3757.50
2019-03-19T10:39:18.418Z,973.12
2019-03-19T10:40:18.348Z,736.88
2019-03-19T10:41:18.350Z,691.88
2019-03-19T10:42:18.321Z,720.00
2019-03-19T10:43:18.318Z,793.12
2019-03-19T10:44:18.476Z,3656.25
2019-03-19T10:45:18.291Z,753.75
2019-03-19T10:46:18.327Z,725.62
2019-03-19T10:47:18.267Z,1642.50
2019-03-19T10:48:18.258Z,1327.50
2019-03-19T10:49:18.251Z,568.12
2019-03-19T10:50:18.623Z,585.00
2019-03-19T10:51:18.585Z,652.50
2019-03-19T10:52:18.226Z,686.25
2019-03-19T10:53:19.504Z,708.75
2019-03-19T10:54:18.702Z,3667.50
2019-03-19T10:55:18.197Z,1130.62
2019-03-19T10:56:18.281Z,1085.62
2019-03-19T10:57:18.158Z,1372.50
2019-03-19T10:58:18.185Z,759.38
2019-03-19T10:59:18.492Z,725.62
2019-03-19T11:00:18.118Z,703.12
2019-03-19T11:01:18.118Z,680.62
2019-03-19T11:02:18.102Z,630.00
2019-03-19T11:03:18.105Z,568.12
2019-03-19T11:04:18.087Z,523.12
2019-03-19T11:05:18.242Z,506.25
2019-03-19T11:06:18.185Z,534.38
2019-03-19T11:07:18.053Z,596.25
2019-03-19T11:08:18.128Z,731.25
2019-03-19T11:09:18.056Z,900.00
2019-03-19T11:11:28.132Z,3813.75
2019-03-19T11:12:27.850Z,1473.75
2019-03-19T11:13:28.148Z,922.50
2019-03-19T11:14:27.827Z,770.62
2019-03-19T11:15:27.825Z,973.12
2019-03-19T11:16:27.992Z,703.12
2019-03-19T11:17:28.585Z,646.88
2019-03-19T11:18:27.970Z,613.12
2019-03-19T11:19:27.897Z,607.50
2019-03-19T11:20:27.785Z,607.50
2019-03-19T11:21:28.217Z,646.88
2019-03-19T11:22:27.739Z,753.75
2019-03-19T11:23:28.059Z,646.88
2019-03-19T11:24:29.646Z,669.38
2019-03-19T11:25:27.709Z,697.50
2019-03-19T11:26:27.711Z,708.75
2019-03-19T11:27:27.691Z,821.25
2019-03-19T11:28:27.869Z,731.25
2019-03-19T11:29:27.666Z,663.75
2019-03-19T11:30:27.661Z,658.12
2019-03-19T11:31:27.648Z,815.62
2019-03-19T11:32:27.655Z,911.25
2019-03-19T11:33:27.655Z,1265.62
2019-03-19T11:34:27.900Z,1147.50
2019-03-19T11:35:27.614Z,843.75
2019-03-19T11:36:27.922Z,658.12
2019-03-19T11:37:27.589Z,3352.50
2019-03-19T11:38:27.586Z,1918.12
2019-03-19T11:39:27.558Z,3183.75
2019-03-19T11:40:27.552Z,3481.88
2019-03-19T11:41:27.712Z,3369.38
2019-03-19T11:42:27.552Z,3436.88
2019-03-19T11:43:27.525Z,3493.12
2019-03-19T11:44:27.502Z,1029.38
2019-03-19T11:45:27.503Z,658.12
2019-03-19T11:46:27.779Z,635.62
2019-03-19T11:47:27.475Z,691.88
2019-03-19T11:48:27.462Z,742.50
2019-03-19T11:49:27.458Z,1906.88
2019-03-19T11:50:27.519Z,894.38
2019-03-19T11:51:28.919Z,804.38
2019-03-19T11:52:27.420Z,686.25
2019-03-19T11:53:27.409Z,596.25
2019-03-19T11:54:27.392Z,545.62
2019-03-19T11:55:27.408Z,528.75
2019-03-19T11:56:27.398Z,528.75
2019-03-19T11:57:27.524Z,528.75
2019-03-19T11:58:27.349Z,540.00
2019-03-19T11:59:28.401Z,545.62
2019-03-19T12:00:27.332Z,562.50
2019-03-19T12:01:27.330Z,556.88
2019-03-19T12:02:27.497Z,556.88
2019-03-19T12:03:27.297Z,568.12
2019-03-19T12:04:27.309Z,579.38
2019-03-19T12:05:27.496Z,618.75
2019-03-19T12:06:27.405Z,663.75
2019-03-19T12:07:27.255Z,720.00
2019-03-19T12:08:27.344Z,765.00
2019-03-19T12:09:27.437Z,832.50
2019-03-19T12:10:27.276Z,826.88
2019-03-19T12:11:38.205Z,860.62
2019-03-19T12:12:27.667Z,916.88
2019-03-19T12:13:27.189Z,2165.62
2019-03-19T12:14:27.182Z,3673.12
2019-03-19T12:15:27.181Z,1051.88
2019-03-19T12:16:27.158Z,1254.38
2019-03-19T12:17:27.265Z,1029.38
2019-03-19T12:18:27.183Z,843.75
2019-03-19T12:19:27.203Z,843.75
2019-03-19T12:20:27.413Z,1057.50
2019-03-19T12:21:27.089Z,3195.00
2019-03-19T12:22:27.307Z,1035.00
2019-03-19T12:23:27.100Z,1001.25
2019-03-19T12:24:27.075Z,1558.12
2019-03-19T12:25:27.155Z,911.25
2019-03-19T12:26:27.045Z,815.62
2019-03-19T12:27:27.043Z,725.62
2019-03-19T12:28:27.259Z,652.50
2019-03-19T12:29:27.413Z,596.25
2019-03-19T12:30:27.037Z,551.25
2019-03-19T12:31:27.003Z,506.25
2019-03-19T12:32:26.972Z,455.62
2019-03-19T12:33:27.228Z,427.50
2019-03-19T12:34:26.959Z,399.38
2019-03-19T12:35:26.946Z,371.25
2019-03-19T12:36:26.960Z,348.75
2019-03-19T12:37:26.916Z,326.25
2019-03-19T12:38:26.946Z,309.38
2019-03-19T12:39:27.198Z,303.75
2019-03-19T12:40:36.190Z,298.12
2019-03-19T12:41:27.878Z,298.12
2019-03-19T12:43:06.182Z,309.38
2019-03-19T12:43:26.873Z,315.00
2019-03-19T12:44:27.268Z,326.25
2019-03-19T12:45:26.854Z,343.12
2019-03-19T12:46:26.826Z,371.25
2019-03-19T12:47:26.812Z,405.00